Time;durP1;ratioP1;P1;durP2;ratioP2;P2;SDS_P1;SDS_P2;PMS_P1;PMS_P2;Temp;Humidity;BMP_temperature;BMP_pressure;BME280_temperature;BME280_humidity;BME280_pressure;Samples;Min_cycle;Max_cycle;Signal;HPM_P1;HPM_P2
2022/01/22 01:14:18;;;;;;;5.43;4.18;;;;;;;4.87;81.96;101812.97;4893713;29;20147;-92
2022/01/22 01:17:11;;;;;;;7.30;4.50;;;;;;;4.95;82.05;101810.31;4895519;29;20084;-95
2022/01/22 01:34:08;;;;;;;9.02;4.70;;;;;;;4.81;82.31;101817.31;4905771;29;20048;-95
2022/01/22 01:36:38;;;;;;;11.50;4.78;;;;;;;5.09;81.95;101870.66;4902872;29;20049;-92
2022/01/22 01:39:09;;;;;;;9.35;4.07;;;;;;;4.90;82.31;101836.56;4901268;29;20057;-94
2022/01/22 01:44:21;;;;;;;6.78;4.05;;;;;;;4.97;82.53;101853.19;4897284;29;20052;-94
2022/01/22 01:46:52;;;;;;;7.45;4.25;;;;;;;4.84;82.74;101839.19;4902377;29;20052;-93
2022/01/22 01:49:21;;;;;;;7.45;4.55;;;;;;;4.75;82.27;101828.69;4901630;29;20076;-94
2022/01/22 01:51:53;;;;;;;8.90;4.57;;;;;;;4.95;82.87;101873.31;4899001;29;20061;-93
2022/01/22 01:54:27;;;;;;;13.90;5.30;;;;;;;4.75;82.93;101848.81;4913985;29;20044;-93
2022/01/22 02:00:04;;;;;;;6.78;4.55;;;;;;;4.61;82.83;101813.81;4901539;29;20135;-93
2022/01/22 02:02:37;;;;;;;7.25;4.25;;;;;;;4.78;82.19;101838.31;4895797;29;20067;-94
2022/01/22 02:05:13;;;;;;;9.32;4.78;;;;;;;4.92;82.76;101852.31;4900948;29;20136;-96
2022/01/22 02:07:44;;;;;;;8.02;4.18;;;;;;;4.88;81.82;101834.78;4900639;29;20140;-95
2022/01/22 02:10:20;;;;;;;11.00;4.40;;;;;;;4.98;81.34;101868.06;4902171;29;20049;-95
2022/01/22 02:24:06;;;;;;;8.65;4.40;;;;;;;4.89;82.21;101866.28;4906530;29;20518;-95
2022/01/22 02:26:56;;;;;;;7.93;4.50;;;;;;;4.66;82.07;101819.94;4918056;29;20059;-93
2022/01/22 02:29:29;;;;;;;8.23;4.85;;;;;;;4.70;82.68;101834.84;4915777;29;20058;-94
2022/01/22 02:32:28;;;;;;;7.90;4.00;;;;;;;4.73;82.12;101838.31;4916997;29;20054;-94
2022/01/22 02:37:44;;;;;;;7.07;4.30;;;;;;;4.69;81.10;101801.59;4912888;29;20131;-94
2022/01/22 02:40:27;;;;;;;7.28;4.15;;;;;;;4.68;81.64;101805.97;4918786;29;20642;-94
2022/01/22 02:43:04;;;;;;;6.38;4.40;;;;;;;4.61;81.83;101803.31;4920574;29;20379;-95
2022/01/22 02:45:32;;;;;;;7.63;4.32;;;;;;;4.71;81.71;101828.72;4922089;29;20050;-94
2022/01/22 02:48:22;;;;;;;6.55;5.10;;;;;;;4.75;81.58;101822.56;4921622;29;20519;-94
2022/01/22 02:50:54;;;;;;;8.45;4.68;;;;;;;4.93;81.52;101857.56;4920101;29;20157;-95
2022/01/22 02:53:26;;;;;;;8.23;4.53;;;;;;;4.90;82.53;101861.91;4903248;29;20053;-94
2022/01/22 02:56:01;;;;;;;7.05;4.10;;;;;;;4.94;81.85;101864.56;4916703;29;20047;-94
2022/01/22 02:58:34;;;;;;;6.82;4.28;;;;;;;4.90;81.90;101839.19;4915260;29;20048;-95
2022/01/22 03:01:05;;;;;;;6.30;3.75;;;;;;;4.79;81.86;101814.69;4916153;29;20216;-95
2022/01/22 03:03:36;;;;;;;5.57;3.78;;;;;;;4.78;81.62;101793.69;4913482;29;20059;-94
2022/01/22 03:06:10;;;;;;;5.03;3.72;;;;;;;4.65;81.46;101781.47;4919421;29;20084;-95
2022/01/22 03:08:41;;;;;;;7.28;4.40;;;;;;;4.91;82.02;101855.81;4918345;29;20148;-94
2022/01/22 03:11:24;;;;;;;6.78;4.28;;;;;;;4.83;82.14;101840.06;4919402;29;20171;-93
2022/01/22 03:14:53;;;;;;;7.43;4.20;;;;;;;4.80;82.00;101826.94;4931617;28;20036;-95
2022/01/22 03:22:43;;;;;;;7.30;4.03;;;;;;;4.75;82.85;101833.94;4936568;29;20054;-96
2022/01/22 03:28:00;;;;;;;5.85;3.63;;;;;;;4.64;82.73;101798.09;4923594;29;20476;-95
2022/01/22 03:30:29;;;;;;;6.00;3.53;;;;;;;4.93;83.09;101851.44;4921655;29;20052;-92
2022/01/22 03:32:57;;;;;;;4.78;3.35;;;;;;;4.59;83.02;101796.31;4921168;29;20056;-94
2022/01/22 03:35:28;;;;;;;4.38;3.63;;;;;;;4.78;82.61;101840.94;4920969;29;20052;-96
2022/01/22 03:38:00;;;;;;;6.93;3.38;;;;;;;4.80;82.77;101821.69;4905349;29;20059;-94
2022/01/22 03:40:32;;;;;;;5.10;3.50;;;;;;;4.72;82.69;101822.59;4921268;29;20056;-93
2022/01/22 03:43:08;;;;;;;6.43;3.78;;;;;;;4.67;83.26;101819.09;4920661;29;20135;-92
2022/01/22 03:45:35;;;;;;;6.15;3.45;;;;;;;4.75;83.26;101833.06;4914154;29;20056;-93
2022/01/22 03:48:03;;;;;;;4.80;3.33;;;;;;;4.87;83.57;101860.19;4904760;29;20108;-93
2022/01/22 03:50:40;;;;;;;3.95;3.03;;;;;;;4.52;83.29;101783.22;4930989;29;20080;-94
2022/01/22 03:53:19;;;;;;;7.68;3.40;;;;;;;4.58;83.60;101789.34;4933342;29;20031;-95
2022/01/22 03:56:01;;;;;;;6.35;3.65;;;;;;;4.51;83.40;101790.22;4936102;29;20029;-95
2022/01/22 03:58:47;;;;;;;4.13;3.35;;;;;;;4.76;83.73;101824.31;4940328;29;20040;-93
2022/01/22 04:10:14;;;;;;;5.70;3.60;;;;;;;4.52;84.99;101798.97;4929471;29;20048;-94
2022/01/22 04:25:39;;;;;;;6.18;3.53;;;;;;;4.66;85.38;101814.72;4912255;29;20074;-92
2022/01/22 04:34:40;;;;;;;4.03;3.20;;;;;;;4.57;85.68;101798.06;4938206;29;20038;-93
2022/01/22 04:37:10;;;;;;;4.00;3.20;;;;;;;4.37;86.13;101777.97;4935354;29;20052;-94
2022/01/22 04:39:55;;;;;;;4.07;3.05;;;;;;;4.71;85.96;101837.47;4926960;29;20052;-93
2022/01/22 04:42:23;;;;;;;3.50;2.97;;;;;;;4.42;86.24;101779.72;4931356;29;20047;-93
2022/01/22 04:45:01;;;;;;;4.55;3.13;;;;;;;4.54;86.22;101810.34;4928249;29;20111;-95
2022/01/22 04:56:41;;;;;;;4.68;3.47;;;;;;;4.55;86.35;101814.72;4924747;29;20055;-94
2022/01/22 04:59:22;;;;;;;4.38;3.10;;;;;;;4.44;86.73;101790.22;4909469;29;20111;-93
2022/01/22 05:02:01;;;;;;;3.58;2.70;;;;;;;4.92;85.60;101833.94;4911858;29;20053;-93
2022/01/22 05:04:35;;;;;;;2.90;2.53;;;;;;;4.66;85.07;101798.97;4904197;29;20049;-94
2022/01/22 05:07:35;;;;;;;2.83;2.53;;;;;;;4.84;85.38;101843.56;4892028;29;20055;-94
2022/01/22 05:10:11;;;;;;;5.22;3.20;;;;;;;4.79;86.45;101840.06;4892048;29;20116;-93
2022/01/22 05:12:55;;;;;;;5.65;3.20;;;;;;;4.66;86.48;101820.84;4892962;29;20080;-93
2022/01/22 05:15:25;;;;;;;3.72;2.88;;;;;;;4.62;86.41;101805.94;4889740;29;20053;-94
2022/01/22 05:17:56;;;;;;;3.65;3.30;;;;;;;4.44;86.40;101796.31;4884915;29;20059;-94
2022/01/22 05:20:32;;;;;;;3.75;2.97;;;;;;;4.45;86.58;101792.84;4893689;29;20201;-95
2022/01/22 05:25:40;;;;;;;3.95;3.33;;;;;;;4.50;86.40;101783.22;4915257;29;20283;-95
2022/01/22 05:31:52;;;;;;;;;;;;;;;;;;;;;
2022/01/22 05:37:28;;;;;;;4.90;3.65;;;;;;;4.78;86.98;101854.94;4919256;29;20052;-94
2022/01/22 05:40:09;;;;;;;4.35;3.47;;;;;;;4.88;87.17;101861.03;4921226;29;20059;-94
2022/01/22 05:42:50;;;;;;;5.53;3.65;;;;;;;4.86;86.74;101858.44;4921171;29;20519;-94
2022/01/22 05:45:19;;;;;;;4.40;3.65;;;;;;;4.47;87.38;101800.72;4922947;29;20487;-93
2022/01/22 05:47:49;;;;;;;4.07;3.60;;;;;;;4.77;87.17;101844.44;4911342;29;20722;-94
2022/01/22 05:50:34;;;;;;;4.57;3.85;;;;;;;4.56;87.12;101811.22;4917136;29;20067;-94
2022/01/22 05:53:15;;;;;;;4.82;3.97;;;;;;;4.77;86.70;101847.94;4914432;29;20071;-94
2022/01/22 06:01:23;;;;;;;6.20;4.20;;;;;;;4.78;86.81;101831.31;4919290;29;20048;-93
2022/01/22 06:03:52;;;;;;;5.28;4.22;;;;;;;4.76;86.81;101825.19;4921446;29;20103;-93
2022/01/22 06:06:22;;;;;;;4.50;3.90;;;;;;;4.99;87.06;101880.31;4921898;29;20075;-94
2022/01/22 06:09:03;;;;;;;5.57;4.00;;;;;;;4.85;86.78;101835.69;4922494;29;20043;-92
2022/01/22 06:11:30;;;;;;;4.90;4.25;;;;;;;4.86;87.12;101855.81;4918797;29;20530;-92
2022/01/22 06:14:01;;;;;;;6.70;4.22;;;;;;;4.80;87.38;101841.81;4920617;29;20070;-91
2022/01/22 06:16:33;;;;;;;4.82;4.13;;;;;;;4.74;87.11;101839.19;4921385;29;20498;-91
2022/01/22 06:19:02;;;;;;;4.63;3.95;;;;;;;4.82;87.35;101861.94;4910967;29;20086;-94
2022/01/22 06:21:32;;;;;;;5.10;4.30;;;;;;;4.94;87.09;101884.69;4916554;29;20056;-95
2022/01/22 06:24:01;;;;;;;8.75;4.72;;;;;;;4.81;87.31;101862.81;4915319;29;20044;-93
2022/01/22 06:26:37;;;;;;;6.22;4.38;;;;;;;4.83;87.58;101854.94;4917177;29;20143;-92
2022/01/22 06:29:20;;;;;;;6.00;4.65;;;;;;;4.86;87.12;101871.56;4916800;29;20152;-93
2022/01/22 06:31:50;;;;;;;5.63;4.95;;;;;;;4.81;87.58;101860.19;4915838;29;20111;-94
2022/01/22 06:34:31;;;;;;;;;;;;;;;;;;;;;
2022/01/22 06:37:00;;;;;;;6.40;5.53;;;;;;;4.77;88.09;101845.31;4920614;29;20055;-92
2022/01/22 06:39:40;;;;;;;6.03;5.35;;;;;;;4.73;88.42;101835.69;4926020;29;20476;-92
2022/01/22 06:42:29;;;;;;;7.22;5.95;;;;;;;4.60;88.26;101815.56;4933065;29;20056;-95
2022/01/22 06:45:01;;;;;;;8.50;6.13;;;;;;;4.75;88.23;101833.06;4928868;29;20104;-92
2022/01/22 06:47:32;;;;;;;8.13;5.57;;;;;;;4.58;88.04;101810.31;4915056;29;20067;-93
2022/01/22 06:50:01;;;;;;;7.10;6.20;;;;;;;4.75;88.75;101857.56;4916674;29;20478;-93
2022/01/22 06:52:34;;;;;;;6.47;5.88;;;;;;;4.83;88.79;101878.56;4902262;29;20056;-92
2022/01/22 06:55:05;;;;;;;7.38;6.32;;;;;;;4.73;88.40;101861.91;4917560;29;20044;-93
2022/01/22 06:57:33;;;;;;;6.93;6.22;;;;;;;4.83;88.73;101873.31;4924383;29;20048;-94
2022/01/22 07:00:03;;;;;;;6.22;5.35;;;;;;;4.94;88.68;101911.81;4931666;29;20067;-94
2022/01/22 07:02:31;;;;;;;7.10;6.20;;;;;;;4.74;88.64;101868.03;4928605;29;20058;-93
2022/01/22 07:05:04;;;;;;;8.50;6.65;;;;;;;4.94;88.89;101919.69;4931984;29;20051;-94
2022/01/22 07:07:35;;;;;;;7.30;6.60;;;;;;;4.76;88.85;101889.91;4928686;29;20039;-94
2022/01/22 07:10:05;;;;;;;7.68;6.47;;;;;;;4.63;88.62;101860.19;4927258;29;20135;-93
2022/01/22 07:12:43;;;;;;;7.40;6.40;;;;;;;4.70;88.66;101877.69;4928612;29;20079;-95
2022/01/22 07:15:20;;;;;;;7.88;6.63;;;;;;;5.03;88.42;101929.31;4914677;29;20059;-95
2022/01/22 07:18:00;;;;;;;;;;;;;;;;;;;;;
2022/01/22 07:20:31;;;;;;;7.70;6.65;;;;;;;4.70;88.97;101877.69;4931906;29;20139;-95
2022/01/22 07:23:14;;;;;;;6.72;5.90;;;;;;;4.76;88.95;101890.78;4922847;29;20048;-94
2022/01/22 07:25:43;;;;;;;7.20;6.43;;;;;;;4.98;89.44;101930.19;4915947;29;20048;-93
2022/01/22 07:28:18;;;;;;;8.27;6.90;;;;;;;4.81;89.49;101906.56;4922358;29;20058;-92
2022/01/22 07:31:05;;;;;;;;;;;;;;;;;;;;;
2022/01/22 07:34:26;;;;;;;8.50;6.88;;;;;;;5.03;89.72;101959.97;4927425;29;20048;-95
2022/01/22 07:37:04;;;;;;;7.55;6.63;;;;;;;4.74;89.48;101899.53;4902257;29;20059;-94
2022/01/22 07:39:31;;;;;;;10.00;7.38;;;;;;;4.86;89.35;101925.81;4919397;29;20048;-93
2022/01/22 07:42:02;;;;;;;8.13;6.78;;;;;;;4.90;89.55;101928.41;4913827;29;20050;-93
2022/01/22 07:44:42;;;;;;;;;;;;;;;;;;;;;
2022/01/22 07:47:11;;;;;;;;;;;;;;;5.07;89.34;101943.31;4915508;29;20113;-92
2022/01/22 07:49:39;;;;;;;7.80;6.40;;;;;;;4.80;89.45;101900.44;4914933;29;19930;-93
2022/01/22 07:52:16;;;;;;;8.70;6.57;;;;;;;4.74;89.53;101886.41;4921872;29;20103;-93
2022/01/22 07:54:50;;;;;;;7.97;6.95;;;;;;;4.92;89.50;101917.94;4904345;29;20047;-92
2022/01/22 07:57:22;;;;;;;7.57;6.72;;;;;;;4.83;89.37;101892.56;4924170;29;20060;-92
2022/01/22 07:59:59;;;;;;;8.52;7.20;;;;;;;4.90;89.29;101910.03;4914515;29;20044;-94
2022/01/22 08:02:30;;;;;;;7.68;6.70;;;;;;;5.10;89.57;101944.19;4925323;29;20056;-94
2022/01/22 08:04:59;;;;;;;8.55;6.57;;;;;;;5.03;89.08;101931.06;4925622;29;20048;-95
2022/01/22 08:07:31;;;;;;;8.55;7.32;;;;;;;5.19;88.81;101957.34;4926445;29;20058;-94
2022/01/22 08:10:00;;;;;;;7.80;6.82;;;;;;;5.00;89.13;101931.06;4910960;29;20439;-92
2022/01/22 08:12:42;;;;;;;7.03;6.32;;;;;;;5.12;88.70;101938.94;4928510;29;20052;-90
2022/01/22 08:15:23;;;;;;;;;;;;;;;;;;;;;
2022/01/22 08:17:55;;;;;;;7.82;6.15;;;;;;;5.29;88.64;101958.19;4927720;29;20052;-95
2022/01/22 08:20:27;;;;;;;7.90;6.68;;;;;;;5.11;89.06;101935.44;4926115;29;20055;-94
2022/01/22 08:26:18;;;;;;;7.07;6.38;;;;;;;5.14;88.79;101939.81;4921683;29;20140;-91
2022/01/22 08:29:02;;;;;;;6.97;6.28;;;;;;;5.07;89.22;101936.31;4882778;29;20053;-93
2022/01/22 08:36:54;;;;;;;7.20;6.47;;;;;;;5.31;88.26;101952.94;4914705;29;20048;-94
2022/01/22 08:39:21;;;;;;;10.27;6.35;;;;;;;5.11;88.25;101917.06;4915894;29;20049;-93
2022/01/22 08:42:02;;;;;;;;;;;;;;;5.43;88.41;101969.56;4913475;29;20106;-93
2022/01/22 08:44:30;;;;;;;8.25;7.28;;;;;;;5.36;88.45;101953.81;4919593;29;20006;-94
2022/01/22 08:47:01;;;;;;;8.00;7.17;;;;;;;5.51;88.25;101986.19;4920654;29;20128;-94
2022/01/22 08:49:29;;;;;;;7.95;7.00;;;;;;;5.50;88.17;101983.59;4918016;29;20068;-93
2022/01/22 08:51:58;;;;;;;10.43;7.50;;;;;;;5.52;88.02;101982.69;4891406;29;20048;-94
2022/01/22 08:54:29;;;;;;;10.37;8.03;;;;;;;5.54;87.75;101990.56;4903308;29;20048;-92
2022/01/22 08:57:03;;;;;;;10.15;8.27;;;;;;;5.50;88.27;101988.84;4917552;29;20592;-94
2022/01/22 08:59:31;;;;;;;10.20;8.18;;;;;;;5.51;88.56;101985.34;4918662;29;20596;-94
2022/01/22 09:01:59;;;;;;;9.57;7.63;;;;;;;5.33;88.18;101948.56;4917964;29;20059;-93
2022/01/22 09:07:27;;;;;;;9.23;7.13;;;;;;;5.47;87.37;101949.44;4895615;29;20812;-94
2022/01/22 09:09:59;;;;;;;8.77;7.60;;;;;;;5.37;87.20;101951.19;4882004;29;20045;-93
2022/01/22 09:12:47;;;;;;;10.10;8.18;;;;;;;5.53;87.75;101981.81;4978315;23;20048;-95
2022/01/22 09:15:17;;;;;;;10.52;8.25;;;;;;;5.37;88.42;101955.56;4912981;28;20055;-96
2022/01/22 09:17:47;;;;;;;9.13;7.15;;;;;;;5.21;88.23;101937.19;5058865;23;20100;-94
2022/01/22 09:21:11;;;;;;;8.48;7.18;;;;;;;5.49;87.20;101966.06;4919827;29;20843;-92
2022/01/22 09:23:21;;;;;;;10.57;7.85;;;;;;;5.42;87.25;101949.44;4906039;29;20080;-93
2022/01/22 09:25:48;;;;;;;9.77;7.97;;;;;;;5.63;87.19;101980.94;4915594;29;20176;-93
2022/01/22 09:28:15;;;;;;;11.02;8.70;;;;;;;5.72;87.63;102011.56;4916615;29;20079;-93
2022/01/22 09:30:43;;;;;;;9.45;7.75;;;;;;;5.63;87.41;101975.69;4914361;29;20077;-94
2022/01/22 09:33:11;;;;;;;10.13;8.18;;;;;;;5.65;87.33;101973.06;4917262;29;20488;-93
2022/01/22 09:35:38;;;;;;;12.85;8.75;;;;;;;5.76;87.19;101992.31;4901305;29;20056;-93
2022/01/22 09:38:05;;;;;;;11.35;8.98;;;;;;;5.74;87.39;101991.44;4915152;29;20066;-94
2022/01/22 09:40:32;;;;;;;10.75;8.35;;;;;;;5.83;86.99;101987.88;4920512;29;20496;-93
2022/01/22 09:43:00;;;;;;;12.18;8.80;;;;;;;5.93;86.76;101998.44;4916505;29;20111;-94
2022/01/22 09:45:31;;;;;;;11.30;8.60;;;;;;;5.68;86.60;101962.50;4911545;29;20758;-93
2022/01/22 09:48:00;;;;;;;12.90;9.77;;;;;;;5.97;86.86;102000.19;4911791;29;20061;-94
2022/01/22 09:50:41;;;;;;;12.10;8.73;;;;;;;6.04;86.09;101992.25;4918889;29;20048;-93
2022/01/22 09:53:23;;;;;;;11.80;9.13;;;;;;;6.18;85.95;102006.25;4911369;29;20576;-92
2022/01/22 09:55:54;;;;;;;12.82;9.27;;;;;;;6.15;85.17;101986.09;4912734;29;20543;-93
2022/01/22 09:58:21;;;;;;;11.48;8.90;;;;;;;6.21;85.46;102012.38;4906745;29;20510;-94
2022/01/22 10:00:50;;;;;;;12.85;9.13;;;;;;;6.11;85.21;101988.75;4915081;29;20072;-95
2022/01/22 10:03:26;;;;;;;14.27;10.13;;;;;;;6.14;89.13;101978.22;4919985;29;20054;-95
2022/01/22 10:05:57;;;;;;;12.02;9.23;;;;;;;6.41;84.37;102009.69;4897565;29;20056;-95
2022/01/22 10:08:31;;;;;;;13.32;9.05;;;;;;;6.41;86.16;101977.22;4911817;29;20500;-93
2022/01/22 10:11:03;;;;;;;11.25;9.27;;;;;;;6.76;85.93;102016.53;4923247;28;20044;-94
2022/01/22 10:13:43;;;;;;;11.57;8.73;;;;;;;6.70;82.69;101991.13;4910388;29;20037;-93
2022/01/22 10:16:16;;;;;;;14.90;9.02;;;;;;;6.56;81.86;101985.03;4910145;29;20052;-94
2022/01/22 10:18:46;;;;;;;11.00;8.63;;;;;;;6.34;84.35;101960.59;4898918;29;20131;-93
2022/01/22 10:21:15;;;;;;;13.05;9.68;;;;;;;6.28;83.27;101973.78;4919424;29;20048;-94
2022/01/22 10:23:44;;;;;;;13.32;9.60;;;;;;;6.31;85.04;101986.91;4920894;29;20051;-94
2022/01/22 10:26:14;;;;;;;15.15;10.80;;;;;;;6.37;88.56;101984.25;4910280;29;20062;-95
2022/01/22 10:28:49;;;;;;;12.27;9.77;;;;;;;6.54;83.24;101979.78;4917776;29;20085;-94
2022/01/22 10:31:21;;;;;;;16.65;11.45;;;;;;;6.44;84.32;101957.03;4914516;29;20222;-94
2022/01/22 10:34:11;;;;;;;13.02;9.95;;;;;;;6.58;82.00;101991.19;4916823;29;20052;-94
2022/01/22 10:36:40;;;;;;;15.93;10.60;;;;;;;6.41;84.19;101964.94;4907164;29;20058;-94
2022/01/22 10:39:25;;;;;;;13.43;10.10;;;;;;;6.45;82.98;101982.47;4923092;29;20155;-93
2022/01/22 10:41:54;;;;;;;14.73;10.35;;;;;;;6.64;83.17;102010.44;4918362;29;20083;-94
2022/01/22 10:44:45;;;;;;;13.55;10.10;;;;;;;6.79;83.48;102032.28;4921376;29;20064;-94
2022/01/22 10:47:20;;;;;;;14.73;10.73;;;;;;;6.60;86.71;102014.00;4917870;29;20052;-95
2022/01/22 10:50:21;;;;;;;15.82;10.65;;;;;;;6.67;83.11;102027.97;4916833;29;20056;-95
2022/01/22 10:52:55;;;;;;;14.10;10.07;;;;;;;6.32;84.52;101975.50;4914155;29;20060;-95
2022/01/22 10:55:24;;;;;;;15.68;10.93;;;;;;;6.73;83.97;102019.19;4920219;29;20086;-94
2022/01/22 10:58:11;;;;;;;15.00;10.73;;;;;;;6.67;87.05;101992.00;4900274;29;20047;-95
2022/01/22 11:00:40;;;;;;;13.45;10.30;;;;;;;6.94;82.23;102030.44;4920241;29;20186;-94
2022/01/22 11:03:28;;;;;;;15.30;9.80;;;;;;;6.56;82.48;101966.63;4918961;29;20056;-94
2022/01/22 11:06:08;;;;;;;13.63;10.82;;;;;;;6.72;82.73;101985.84;4915390;29;20597;-94
2022/01/22 11:08:35;;;;;;;12.75;9.55;;;;;;;6.92;82.93;102013.81;4906393;29;20052;-95
2022/01/22 11:11:09;;;;;;;15.35;10.90;;;;;;;7.21;86.68;102026.78;4920722;29;20147;-95
2022/01/22 11:13:38;;;;;;;13.00;9.88;;;;;;;7.37;84.78;102036.31;4909499;29;20075;-95
2022/01/22 11:16:10;;;;;;;14.68;10.30;;;;;;;7.05;81.91;101985.63;4919059;29;20048;-96
2022/01/22 11:19:04;;;;;;;14.98;10.10;;;;;;;7.11;80.64;102006.63;4922969;29;20052;-95
2022/01/22 11:21:32;;;;;;;14.98;10.50;;;;;;;7.08;81.50;102011.94;4910354;29;20060;-94
2022/01/22 11:23:59;;;;;;;12.23;9.25;;;;;;;7.18;80.87;102029.44;4920694;29;20063;-94
2022/01/22 11:26:38;;;;;;;13.13;10.13;;;;;;;6.92;80.74;101991.88;4915189;29;20060;-95
2022/01/22 11:29:31;;;;;;;12.77;9.05;;;;;;;7.25;80.57;102054.84;4928224;29;20059;-95
2022/01/22 11:32:04;;;;;;;11.57;9.05;;;;;;;7.00;79.59;102019.00;4929432;29;20059;-95
2022/01/22 11:34:36;;;;;;;11.38;8.88;;;;;;;7.00;80.63;102033.06;4934560;29;20052;-94
2022/01/22 11:37:15;;;;;;;12.98;9.35;;;;;;;7.14;80.43;102043.50;4926948;29;20054;-92
2022/01/22 11:40:11;;;;;;;10.93;7.93;;;;;;;7.13;79.50;102025.06;4929150;29;20052;-94
2022/01/22 11:42:55;;;;;;;10.23;8.10;;;;;;;7.26;78.33;102051.31;4915665;29;20063;-93
2022/01/22 11:45:36;;;;;;;10.45;7.88;;;;;;;7.28;78.80;102027.59;4923478;29;20052;-94
2022/01/22 11:48:30;;;;;;;10.50;7.85;;;;;;;7.51;77.46;102023.03;4932995;29;20055;-95
2022/01/22 11:51:23;;;;;;;9.57;7.28;;;;;;;7.73;75.43;102044.78;4935233;29;20052;-95
2022/01/22 11:53:56;;;;;;;8.57;6.70;;;;;;;7.30;75.91;101991.56;4938093;29;20067;-96
2022/01/22 11:56:43;;;;;;;9.55;6.95;;;;;;;7.62;76.69;102039.63;4923730;29;20073;-95
2022/01/22 11:59:12;;;;;;;7.38;5.82;;;;;;;7.64;75.49;102048.41;4928086;29;20044;-95
2022/01/22 12:01:50;;;;;;;6.57;4.97;;;;;;;7.63;74.44;102059.81;4927156;29;20044;-95
2022/01/22 12:04:21;;;;;;;6.00;4.80;;;;;;;7.28;75.08;101990.69;4925826;29;20059;-96
2022/01/22 12:07:00;;;;;;;6.97;5.32;;;;;;;7.58;75.09;102047.56;4931374;29;20031;-96
2022/01/22 12:15:18;;;;;;;7.00;5.30;;;;;;;7.46;74.78;102045.03;4923087;29;20519;-94
2022/01/22 12:17:58;;;;;;;7.80;5.78;;;;;;;7.37;75.18;102033.69;4923304;29;20079;-95
2022/01/22 12:23:39;;;;;;;6.07;4.93;;;;;;;7.24;74.86;102032.00;4923483;29;20058;-95
2022/01/22 12:26:15;;;;;;;6.72;5.57;;;;;;;7.10;75.54;102012.78;4916390;29;20048;-96
2022/01/22 12:28:48;;;;;;;7.45;5.45;;;;;;;6.99;75.29;101993.56;4925649;29;20060;-96
2022/01/22 12:31:24;;;;;;;6.53;4.93;;;;;;;7.15;75.49;102026.81;4905131;29;20674;-96
2022/01/22 12:33:56;;;;;;;6.15;5.43;;;;;;;7.13;75.88;102022.44;4916336;29;20056;-96
2022/01/22 12:36:42;;;;;;;8.45;6.20;;;;;;;7.14;75.72;102018.91;4904177;29;20051;-95
2022/01/22 12:39:15;;;;;;;8.60;5.70;;;;;;;7.22;76.06;102009.22;4921982;29;20107;-96
2022/01/22 12:41:57;;;;;;;8.02;5.60;;;;;;;7.16;75.85;101991.69;4919488;29;20052;-96
2022/01/22 12:44:29;;;;;;;7.10;5.88;;;;;;;7.00;75.60;101971.59;4920404;29;20154;-96
2022/01/22 12:47:00;;;;;;;9.77;6.85;;;;;;;7.36;75.54;102018.75;4885497;29;20041;-96
2022/01/22 12:49:37;;;;;;;7.40;5.57;;;;;;;7.25;75.49;102010.03;4915362;29;20433;-95
2022/01/22 12:52:11;;;;;;;7.55;5.75;;;;;;;6.98;75.25;101965.47;4919354;29;20194;-96
2022/01/22 12:54:45;;;;;;;7.75;5.88;;;;;;;7.16;74.98;102003.97;4908054;29;20052;-96
2022/01/22 12:57:22;;;;;;;7.03;5.43;;;;;;;7.31;75.36;102044.25;4919021;29;20055;-96
2022/01/22 13:00:01;;;;;;;8.43;6.03;;;;;;;7.23;75.08;102037.31;4907437;29;20103;-96
2022/01/22 13:02:46;;;;;;;7.10;5.60;;;;;;;6.89;75.71;101981.34;4929211;29;20342;-95
2022/01/22 13:05:17;;;;;;;6.28;5.30;;;;;;;7.15;76.02;102021.53;4931966;29;20044;-96
2022/01/22 13:07:54;;;;;;;5.88;4.47;;;;;;;6.94;76.10;102000.59;4927106;29;20104;-95
2022/01/22 13:10:32;;;;;;;7.10;5.38;;;;;;;6.82;76.21;101984.88;4929288;29;20075;-96
2022/01/22 13:13:03;;;;;;;6.95;5.53;;;;;;;6.82;76.20;101984.88;4930521;29;20077;-94
2022/01/22 13:15:31;;;;;;;8.43;6.30;;;;;;;6.74;76.24;101977.06;4930604;29;20052;-96
2022/01/22 13:18:09;;;;;;;8.32;6.00;;;;;;;7.04;76.50;102028.66;4927394;29;20064;-95
2022/01/22 13:20:38;;;;;;;10.03;6.87;;;;;;;6.68;76.89;101979.72;4918672;29;20080;-96
2022/01/22 13:23:16;;;;;;;8.40;6.20;;;;;;;6.97;76.79;102019.03;4939424;28;20504;-94
2022/01/22 13:25:57;;;;;;;6.85;5.53;;;;;;;6.88;76.83;102001.53;4923068;29;20063;-94
2022/01/22 13:29:01;;;;;;;8.88;6.32;;;;;;;6.84;76.61;101996.28;4930820;29;20051;-95
2022/01/22 13:31:42;;;;;;;7.68;5.75;;;;;;;6.84;77.14;102012.09;4924202;29;20071;-94
2022/01/22 13:34:27;;;;;;;10.23;7.00;;;;;;;6.78;77.24;101993.69;4918448;29;20044;-95
2022/01/22 13:37:17;;;;;;;8.50;6.65;;;;;;;6.86;77.06;102005.06;4913887;29;20059;-96
2022/01/22 13:48:43;;;;;;;9.80;6.25;;;;;;;6.94;77.28;101995.34;4916638;29;20110;-96
2022/01/22 13:51:20;;;;;;;7.68;6.18;;;;;;;6.80;77.33;101970.84;4916949;29;20068;-96
2022/01/22 13:53:48;;;;;;;9.95;6.00;;;;;;;6.94;77.81;102000.59;4918652;29;20054;-95
2022/01/22 13:56:50;;;;;;;9.80;6.20;;;;;;;7.13;77.95;102030.34;4912712;29;20075;-94
2022/01/22 13:59:34;;;;;;;8.15;5.85;;;;;;;7.13;77.56;102025.94;4921986;29;20047;-94
2022/01/22 14:03:31;;;;;;;11.73;6.93;;;;;;;7.13;77.28;102023.31;4922921;29;20055;-94
2022/01/22 14:05:31;;;;;;;9.65;6.32;;;;;;;7.26;77.38;102017.06;4922719;29;20048;-93
2022/01/22 14:08:13;;;;;;;9.48;6.55;;;;;;;7.21;77.26;102032.06;4915232;29;20052;-94
2022/01/22 14:11:02;;;;;;;7.93;5.93;;;;;;;6.90;77.53;101983.09;4921545;29;20084;-93
2022/01/22 14:13:29;;;;;;;10.60;6.97;;;;;;;6.98;77.63;102008.47;4922511;29;20052;-94
2022/01/22 14:16:19;;;;;;;9.77;7.10;;;;;;;6.97;78.49;102011.13;4923218;29;20058;-95
2022/01/22 14:18:49;;;;;;;11.52;7.63;;;;;;;7.09;78.30;102029.47;4920643;29;20135;-95
2022/01/22 14:21:20;;;;;;;;;;;;;;;7.08;78.43;102019.84;4922799;29;20056;-96
2022/01/22 14:23:52;;;;;;;11.23;7.30;;;;;;;6.82;78.76;101993.66;4924944;29;19927;-93
2022/01/22 14:26:41;;;;;;;7.82;5.38;;;;;;;6.88;78.21;101992.75;4908289;29;20047;-94
2022/01/22 14:29:14;;;;;;;9.43;6.07;;;;;;;6.68;78.13;101964.78;4921158;29;20072;-95
2022/01/22 14:31:53;;;;;;;8.90;5.28;;;;;;;6.97;77.88;102024.28;4930839;29;20075;-94
2022/01/22 14:34:45;;;;;;;7.10;4.95;;;;;;;6.71;77.54;101987.59;4920297;29;20132;-95
2022/01/22 14:37:29;;;;;;;7.65;5.88;;;;;;;6.78;77.56;101980.50;4914032;29;20063;-96
2022/01/22 14:46:02;;;;;;;5.78;4.60;;;;;;;7.08;76.71;102030.38;4914423;29;20123;-94
2022/01/22 14:48:52;;;;;;;9.27;4.95;;;;;;;6.94;76.85;102012.00;4911834;29;20048;-94
2022/01/22 14:51:22;;;;;;;5.88;4.18;;;;;;;7.04;76.67;102028.66;4912413;29;20059;-95
2022/01/22 14:54:06;;;;;;;7.78;4.57;;;;;;;7.06;76.27;102037.44;4910646;29;20060;-95
2022/01/22 14:56:36;;;;;;;5.70;4.40;;;;;;;6.79;75.72;101985.78;4912411;29;20411;-95
2022/01/22 14:59:27;;;;;;;5.95;4.75;;;;;;;6.88;76.39;102005.94;4902074;29;20063;-95
2022/01/22 15:02:08;;;;;;;5.80;4.80;;;;;;;6.82;77.13;102003.31;4897982;29;20134;-95
2022/01/22 15:04:37;;;;;;;8.75;6.13;;;;;;;6.75;77.31;102007.75;4903723;29;20151;-94
2022/01/22 15:07:20;;;;;;;7.10;5.47;;;;;;;6.62;77.94;101977.97;4929331;29;20051;-94
2022/01/22 15:09:48;;;;;;;8.48;6.25;;;;;;;6.60;78.19;101979.78;4924072;28;20084;-94
2022/01/22 15:12:21;;;;;;;6.47;5.20;;;;;;;6.81;78.26;102020.00;4922815;29;20059;-94
2022/01/22 15:15:01;;;;;;;6.10;4.90;;;;;;;6.75;77.93;102013.03;4902260;29;20099;-93
2022/01/22 15:17:50;;;;;;;7.93;4.97;;;;;;;6.59;78.17;102001.72;4905824;29;20052;-95
2022/01/22 15:20:24;;;;;;;6.60;4.50;;;;;;;6.55;78.44;101994.69;4907710;29;20051;-95
2022/01/22 15:23:10;;;;;;;10.90;5.18;;;;;;;6.88;78.88;102050.69;4894677;29;20071;-94
2022/01/22 15:25:44;;;;;;;13.10;6.00;;;;;;;6.88;78.60;102045.44;4906034;29;20063;-95
2022/01/22 15:28:25;;;;;;;14.60;6.28;;;;;;;6.53;78.66;101998.22;4908289;29;20062;-95
2022/01/22 15:30:55;;;;;;;12.63;6.13;;;;;;;6.77;78.93;102040.19;5038817;23;20079;-96
2022/01/22 15:39:12;;;;;;;10.25;6.43;;;;;;;6.70;78.70;102022.69;4901562;29;20059;-92
2022/01/22 15:42:00;;;;;;;9.68;5.88;;;;;;;6.54;78.89;102003.47;4907318;29;20068;-95
2022/01/22 15:44:33;;;;;;;9.77;6.05;;;;;;;6.88;78.99;102054.19;4911234;29;20052;-94
2022/01/22 15:47:20;;;;;;;8.38;5.38;;;;;;;6.90;78.60;102059.47;4894190;29;20053;-92
2022/01/22 15:50:05;;;;;;;10.98;6.10;;;;;;;6.77;78.81;102026.19;4887992;29;20060;-92